El Paso, TX (88520)

3:13 PM MDT on July 05, 2015 (GMT -0600)
SanClemente Estates | | Change Station
CLOSE
Current Station
Personal Weather Station
Location: EL PASO, TX
Elevation: 4606 ft
Nearby Weather Stations

Elev 4606 ft 31.82 °N, 106.50 °W | Updated 4 seconds ago

Scattered Clouds
Scattered Clouds
86.4 °F
Feels Like 86 °F
N
2.7
Wind Variable Wind from SW
Gusts 5.6 mph

Today
High -- | Low -- °F
--% Chance of Precip.
Yesterday
High -- | Low -- °F
Precip. -- in
6:05 AM 8:14 PM
Waning Gibbous, 82% visible
Pressure 29.78 in
Visibility 10.0 miles
Clouds Scattered Clouds 10000 ft
Scattered Clouds 16000 ft
Scattered Clouds 25000 ft
Heat Index 86 °F
Dew Point 59 °F
Humidity 40%
Rainfall 0.00 in
Snow Depth Not available.
UV 0.0 out of 12
Pollen 3.50 out of 12
Air Quality Not available.
Flu Activity Not available.
METAR KELP 052051Z 25014G19KT 10SM SCT100 SCT160 SCT250 33/14 A3000 RMK AO2 SLP082 CB DSNT SE T03280144 56020 $

More Conditions Fewer Conditions

Pressure 29.78 in
Visibility 10.0 miles
Clouds Scattered Clouds 10000 ft
Scattered Clouds 16000 ft
Scattered Clouds 25000 ft
Heat Index 86 °F
Dew Point 59 °F
Humidity 40%
Rainfall 0.00 in
Snow Depth Not available.
UV 0.0 out of 12
Pollen 3.50 out of 12
Air Quality Not available.
Flu Activity Not available.
METAR KELP 052051Z 25014G19KT 10SM SCT100 SCT160 SCT250 33/14 A3000 RMK AO2 SLP082 CB DSNT SE T03280144 56020 $

More Conditions Fewer Conditions

10-Day Weather Forecast

×

Almanac

Astronomy

Jul. 05, 2015 Rise Set
Actual Time
Civil Twilight
Nautical Twilight
Astronomical Twilight
Moon
Length of Visible Light
Length of Day
Tomorrow will be .
, % of the Moon is Illuminated

Today's Extremes

State Highs State Lows

Community

WunderPhotos

Upload Photos

1,835,393 photos uploaded!

WunderBlogs® & News

Nearby

Air Quality

  Air Quality AQ Index Pollutant
Not available.

Snow Depth

Station Depth Elevation

Earthquake Activity

City Distance Mag. Time & Date
Minimum magnitude displayed is 2.5.

Coastal Water Temperatures

Place Temperature

Stations

Nearby Weather Stations

Station Location Temp. Windchill Dew Point Humidity Wind Precip. Elev Updated Type